sensor_id;sensor_type;location;lat;lon;timestamp;pressure;altitude;pressure_sealevel;temperature;humidity
80116;BME280;69423;47.608;19.366;2023-06-19T00:00:08;98907.91;;;15.66;78.39
80116;BME280;69423;47.608;19.366;2023-06-19T00:00:44;98912.03;;;15.68;77.74
80116;BME280;69423;47.608;19.366;2023-06-19T00:01:15;98905.84;;;15.68;77.35
80116;BME280;69423;47.608;19.366;2023-06-19T00:01:46;98914.34;;;15.65;77.54
80116;BME280;69423;47.608;19.366;2023-06-19T00:02:18;98908.97;;;15.65;77.04
80116;BME280;69423;47.608;19.366;2023-06-19T00:02:49;98904.19;;;15.67;77.12
80116;BME280;69423;47.608;19.366;2023-06-19T00:03:20;98903.59;;;15.65;78.07
80116;BME280;69423;47.608;19.366;2023-06-19T00:03:51;98907.09;;;15.65;78.59
80116;BME280;69423;47.608;19.366;2023-06-19T00:04:22;98911.66;;;15.65;78.18
80116;BME280;69423;47.608;19.366;2023-06-19T00:04:53;98906.28;;;15.65;78.37
80116;BME280;69423;47.608;19.366;2023-06-19T00:05:24;98905.44;;;15.64;78.07
80116;BME280;69423;47.608;19.366;2023-06-19T00:05:56;98906.69;;;15.62;78.32
80116;BME280;69423;47.608;19.366;2023-06-19T00:06:27;98909.38;;;15.62;78.28
80116;BME280;69423;47.608;19.366;2023-06-19T00:07:00;98903.41;;;15.59;78.68
80116;BME280;69423;47.608;19.366;2023-06-19T00:07:31;98907.56;;;15.55;79.20
80116;BME280;69423;47.608;19.366;2023-06-19T00:08:02;98905.94;;;15.54;79.59
80116;BME280;69423;47.608;19.366;2023-06-19T00:08:35;98902.19;;;15.55;79.85
80116;BME280;69423;47.608;19.366;2023-06-19T00:09:07;98907.56;;;15.55;79.17
80116;BME280;69423;47.608;19.366;2023-06-19T00:09:38;98908.38;;;15.56;79.15
80116;BME280;69423;47.608;19.366;2023-06-19T00:10:09;98914.16;;;15.59;78.71
80116;BME280;69423;47.608;19.366;2023-06-19T00:10:40;98905.06;;;15.61;79.04
80116;BME280;69423;47.608;19.366;2023-06-19T00:11:11;98908.78;;;15.59;78.34
80116;BME280;69423;47.608;19.366;2023-06-19T00:11:42;98906.09;;;15.59;78.73
80116;BME280;69423;47.608;19.366;2023-06-19T00:12:13;98907.97;;;15.59;77.81
80116;BME280;69423;47.608;19.366;2023-06-19T00:12:44;98905.47;;;15.57;77.61
80116;BME280;69423;47.608;19.366;2023-06-19T00:13:16;98913.53;;;15.57;78.13
80116;BME280;69423;47.608;19.366;2023-06-19T00:13:47;98911.69;;;15.58;77.46
80116;BME280;69423;47.608;19.366;2023-06-19T00:14:18;98909.22;;;15.56;77.38
80116;BME280;69423;47.608;19.366;2023-06-19T00:14:49;98908.63;;;15.54;77.18
80116;BME280;69423;47.608;19.366;2023-06-19T00:15:20;98908.00;;;15.52;78.38
80116;BME280;69423;47.608;19.366;2023-06-19T00:15:51;98915.03;;;15.53;77.59
80116;BME280;69423;47.608;19.366;2023-06-19T00:16:22;98917.09;;;15.51;78.09
80116;BME280;69423;47.608;19.366;2023-06-19T00:16:55;98912.53;;;15.52;78.56
80116;BME280;69423;47.608;19.366;2023-06-19T00:17:27;98911.72;;;15.51;78.58
80116;BME280;69423;47.608;19.366;2023-06-19T00:17:58;98910.28;;;15.49;77.47
80116;BME280;69423;47.608;19.366;2023-06-19T00:18:30;98915.88;;;15.47;77.64
80116;BME280;69423;47.608;19.366;2023-06-19T00:19:01;98916.94;;;15.46;78.55
80116;BME280;69423;47.608;19.366;2023-06-19T00:19:34;98905.13;;;15.47;77.91
80116;BME280;69423;47.608;19.366;2023-06-19T00:20:07;98910.09;;;15.50;77.69
80116;BME280;69423;47.608;19.366;2023-06-19T00:20:38;98907.41;;;15.50;77.24
80116;BME280;69423;47.608;19.366;2023-06-19T00:21:10;98905.75;;;15.49;77.49
80116;BME280;69423;47.608;19.366;2023-06-19T00:21:41;98908.88;;;15.46;77.57
80116;BME280;69423;47.608;19.366;2023-06-19T00:22:13;98909.47;;;15.48;78.06
80116;BME280;69423;47.608;19.366;2023-06-19T00:22:44;98903.50;;;15.46;77.84
80116;BME280;69423;47.608;19.366;2023-06-19T00:23:15;98909.28;;;15.43;78.12
80116;BME280;69423;47.608;19.366;2023-06-19T00:23:47;98910.94;;;15.44;77.90
80116;BME280;69423;47.608;19.366;2023-06-19T00:24:18;98906.84;;;15.42;77.95
80116;BME280;69423;47.608;19.366;2023-06-19T00:24:49;98911.38;;;15.41;78.23
80116;BME280;69423;47.608;19.366;2023-06-19T00:25:22;98906.00;;;15.41;78.12
80116;BME280;69423;47.608;19.366;2023-06-19T00:25:53;98904.16;;;15.42;77.64
80116;BME280;69423;47.608;19.366;2023-06-19T00:26:24;98904.16;;;15.42;77.17
80116;BME280;69423;47.608;19.366;2023-06-19T00:26:56;98904.38;;;15.40;77.15
80116;BME280;69423;47.608;19.366;2023-06-19T00:27:27;98907.88;;;15.41;77.36
80116;BME280;69423;47.608;19.366;2023-06-19T00:27:58;98900.63;;;15.41;77.97
80116;BME280;69423;47.608;19.366;2023-06-19T00:28:30;98904.38;;;15.40;78.45
80116;BME280;69423;47.608;19.366;2023-06-19T00:29:01;98906.44;;;15.38;78.81
80116;BME280;69423;47.608;19.366;2023-06-19T00:29:33;98907.47;;;15.37;79.03
80116;BME280;69423;47.608;19.366;2023-06-19T00:30:05;98895.91;;;15.36;78.06
80116;BME280;69423;47.608;19.366;2023-06-19T00:30:37;98906.84;;;15.35;78.36
80116;BME280;69423;47.608;19.366;2023-06-19T00:31:08;98902.53;;;15.34;78.36
80116;BME280;69423;47.608;19.366;2023-06-19T00:31:39;98896.09;;;15.35;78.74
80116;BME280;69423;47.608;19.366;2023-06-19T00:32:11;98900.47;;;15.36;78.23
80116;BME280;69423;47.608;19.366;2023-06-19T00:32:42;98910.16;;;15.37;78.25
80116;BME280;69423;47.608;19.366;2023-06-19T00:33:20;98896.72;;;15.37;79.31
80116;BME280;69423;47.608;19.366;2023-06-19T00:33:52;98903.97;;;15.36;78.89
80116;BME280;69423;47.608;19.366;2023-06-19T00:34:23;98905.84;;;15.36;79.37
80116;BME280;69423;47.608;19.366;2023-06-19T00:34:54;98903.34;;;15.34;79.18
80116;BME280;69423;47.608;19.366;2023-06-19T00:35:26;98900.88;;;15.33;79.69
80116;BME280;69423;47.608;19.366;2023-06-19T00:35:58;98900.88;;;15.33;79.27
80116;BME280;69423;47.608;19.366;2023-06-19T00:36:29;98905.44;;;15.32;79.36
80116;BME280;69423;47.608;19.366;2023-06-19T00:37:00;98894.88;;;15.31;78.77
80116;BME280;69423;47.608;19.366;2023-06-19T00:37:31;98905.63;;;15.31;78.65
80116;BME280;69423;47.608;19.366;2023-06-19T00:38:04;98906.69;;;15.30;78.20
80116;BME280;69423;47.608;19.366;2023-06-19T00:38:36;98893.66;;;15.27;78.49
80116;BME280;69423;47.608;19.366;2023-06-19T00:39:07;98896.59;;;15.25;78.67
80116;BME280;69423;47.608;19.366;2023-06-19T00:39:39;98896.81;;;15.24;79.24
80116;BME280;69423;47.608;19.366;2023-06-19T00:40:41;98893.50;;;15.22;79.04
80116;BME280;69423;47.608;19.366;2023-06-19T00:41:12;98897.00;;;15.22;78.56
80116;BME280;69423;47.608;19.366;2023-06-19T00:41:43;98897.66;;;15.17;79.43
80116;BME280;69423;47.608;19.366;2023-06-19T00:42:15;98894.16;;;15.17;78.87
80116;BME280;69423;47.608;19.366;2023-06-19T00:42:46;98895.63;;;15.13;78.91
80116;BME280;69423;47.608;19.366;2023-06-19T00:43:17;98902.81;;;15.12;79.68
80116;BME280;69423;47.608;19.366;2023-06-19T00:43:49;98893.34;;;15.10;79.78
80116;BME280;69423;47.608;19.366;2023-06-19T00:44:21;98896.47;;;15.07;79.30
80116;BME280;69423;47.608;19.366;2023-06-19T00:44:52;98903.09;;;15.04;79.26
80116;BME280;69423;47.608;19.366;2023-06-19T00:45:23;98894.19;;;15.04;79.84
80116;BME280;69423;47.608;19.366;2023-06-19T00:45:57;98895.03;;;14.97;80.71
80116;BME280;69423;47.608;19.366;2023-06-19T00:46:28;98889.69;;;14.97;79.84
80116;BME280;69423;47.608;19.366;2023-06-19T00:47:02;98894.66;;;14.94;80.46
80116;BME280;69423;47.608;19.366;2023-06-19T00:47:34;98899.63;;;14.90;80.39
80116;BME280;69423;47.608;19.366;2023-06-19T00:48:05;98899.84;;;14.89;80.66
80116;BME280;69423;47.608;19.366;2023-06-19T00:48:36;98897.34;;;14.87;80.26
80116;BME280;69423;47.608;19.366;2023-06-19T00:49:08;98896.97;;;14.84;79.91
80116;BME280;69423;47.608;19.366;2023-06-19T00:49:39;98895.31;;;14.83;79.69
80116;BME280;69423;47.608;19.366;2023-06-19T00:50:11;98900.06;;;14.81;79.81
80116;BME280;69423;47.608;19.366;2023-06-19T00:50:42;98897.59;;;14.79;79.46
80116;BME280;69423;47.608;19.366;2023-06-19T00:51:13;98899.25;;;14.80;80.00
80116;BME280;69423;47.608;19.366;2023-06-19T00:51:45;98893.06;;;14.80;80.09
80116;BME280;69423;47.608;19.366;2023-06-19T00:52:16;98895.13;;;14.77;80.26
80116;BME280;69423;47.608;19.366;2023-06-19T00:52:48;98895.13;;;14.77;79.74
80116;BME280;69423;47.608;19.366;2023-06-19T00:53:20;98900.72;;;14.76;80.10
80116;BME280;69423;47.608;19.366;2023-06-19T00:53:51;98888.94;;;14.70;79.94
80116;BME280;69423;47.608;19.366;2023-06-19T00:54:22;98892.06;;;14.67;79.65
80116;BME280;69423;47.608;19.366;2023-06-19T00:54:54;98886.50;;;14.69;80.01
80116;BME280;69423;47.608;19.366;2023-06-19T00:55:28;98892.06;;;14.67;80.18
80116;BME280;69423;47.608;19.366;2023-06-19T00:56:01;98888.34;;;14.68;80.07
80116;BME280;69423;47.608;19.366;2023-06-19T00:56:37;98889.59;;;14.66;80.64
80116;BME280;69423;47.608;19.366;2023-06-19T00:57:08;98892.47;;;14.64;79.98
80116;BME280;69423;47.608;19.366;2023-06-19T00:57:39;98892.47;;;14.64;80.38
80116;BME280;69423;47.608;19.366;2023-06-19T00:58:11;98898.69;;;14.65;81.24
80116;BME280;69423;47.608;19.366;2023-06-19T00:58:42;98896.22;;;14.63;81.01
80116;BME280;69423;47.608;19.366;2023-06-19T00:59:19;98891.03;;;14.62;81.08
80116;BME280;69423;47.608;19.366;2023-06-19T00:59:51;98890.22;;;14.61;81.09
80116;BME280;69423;47.608;19.366;2023-06-19T01:00:23;98890.22;;;14.61;81.13
80116;BME280;69423;47.608;19.366;2023-06-19T01:00:54;98896.84;;;14.59;80.92
80116;BME280;69423;47.608;19.366;2023-06-19T01:01:28;98901.38;;;14.58;80.83
80116;BME280;69423;47.608;19.366;2023-06-19T01:01:59;98890.03;;;14.56;80.75
80116;BME280;69423;47.608;19.366;2023-06-19T01:02:31;98894.56;;;14.55;81.77
80116;BME280;69423;47.608;19.366;2023-06-19T01:03:02;98889.19;;;14.55;81.36
80116;BME280;69423;47.608;19.366;2023-06-19T01:03:34;98899.94;;;14.55;81.31
80116;BME280;69423;47.608;19.366;2023-06-19T01:04:06;98892.28;;;14.52;81.85
80116;BME280;69423;47.608;19.366;2023-06-19T01:04:37;98891.44;;;14.52;82.47
80116;BME280;69423;47.608;19.366;2023-06-19T01:05:09;98885.66;;;14.55;82.05
80116;BME280;69423;47.608;19.366;2023-06-19T01:05:40;98888.19;;;14.56;81.93
80116;BME280;69423;47.608;19.366;2023-06-19T01:06:17;98887.75;;;14.53;81.90
80116;BME280;69423;47.608;19.366;2023-06-19T01:06:55;98887.75;;;14.53;82.21
80116;BME280;69423;47.608;19.366;2023-06-19T01:08:43;98878.28;;;14.57;82.42
80116;BME280;69423;47.608;19.366;2023-06-19T01:09:17;98890.03;;;14.56;82.15
80116;BME280;69423;47.608;19.366;2023-06-19T01:09:57;98881.16;;;14.55;81.29
80116;BME280;69423;47.608;19.366;2023-06-19T01:10:38;98881.16;;;14.55;82.52
80116;BME280;69423;47.608;19.366;2023-06-19T01:11:15;98878.47;;;14.55;82.34
80116;BME280;69423;47.608;19.366;2023-06-19T01:11:56;98881.16;;;14.55;82.30
80116;BME280;69423;47.608;19.366;2023-06-19T01:12:44;98885.25;;;14.51;82.42
80116;BME280;69423;47.608;19.366;2023-06-19T01:13:24;98868.97;;;14.53;82.38
80116;BME280;69423;47.608;19.366;2023-06-19T01:14:40;98881.75;;;14.51;82.06
80116;BME280;69423;47.608;19.366;2023-06-19T01:15:13;98884.25;;;14.52;82.38
80116;BME280;69423;47.608;19.366;2023-06-19T01:15:46;98886.50;;;14.49;81.95
80116;BME280;69423;47.608;19.366;2023-06-19T01:16:19;98889.19;;;14.49;81.90
80116;BME280;69423;47.608;19.366;2023-06-19T01:16:51;98883.22;;;14.47;82.27
80116;BME280;69423;47.608;19.366;2023-06-19T01:17:23;98884.84;;;14.48;82.61
80116;BME280;69423;47.608;19.366;2023-06-19T01:17:56;98891.69;;;14.44;83.02
80116;BME280;69423;47.608;19.366;2023-06-19T01:18:30;98884.47;;;14.44;82.94
80116;BME280;69423;47.608;19.366;2023-06-19T01:19:03;98882.59;;;14.45;83.24
80116;BME280;69423;47.608;19.366;2023-06-19T01:19:36;98880.13;;;14.43;83.29
80116;BME280;69423;47.608;19.366;2023-06-19T01:20:08;98887.97;;;14.45;83.05
80116;BME280;69423;47.608;19.366;2023-06-19T01:20:42;98881.97;;;14.43;82.98
80116;BME280;69423;47.608;19.366;2023-06-19T01:21:15;98880.34;;;14.42;83.24
80116;BME280;69423;47.608;19.366;2023-06-19T01:21:47;98890.84;;;14.43;82.83
80116;BME280;69423;47.608;19.366;2023-06-19T01:22:28;98881.38;;;14.41;82.91
80116;BME280;69423;47.608;19.366;2023-06-19T01:23:07;98884.88;;;14.41;83.13
80116;BME280;69423;47.608;19.366;2023-06-19T01:23:39;98887.78;;;14.40;82.84
80116;BME280;69423;47.608;19.366;2023-06-19T01:24:10;98886.13;;;14.38;82.21
80116;BME280;69423;47.608;19.366;2023-06-19T01:24:41;98885.50;;;14.36;82.98
80116;BME280;69423;47.608;19.366;2023-06-19T01:25:12;98884.88;;;14.34;83.07
80116;BME280;69423;47.608;19.366;2023-06-19T01:25:44;98891.06;;;14.35;82.62
80116;BME280;69423;47.608;19.366;2023-06-19T01:26:16;98884.47;;;14.37;82.75
80116;BME280;69423;47.608;19.366;2023-06-19T01:26:48;98877.47;;;14.36;82.85
80116;BME280;69423;47.608;19.366;2023-06-19T01:27:20;98884.47;;;14.37;83.14
80116;BME280;69423;47.608;19.366;2023-06-19T01:27:52;98884.47;;;14.37;82.97
80116;BME280;69423;47.608;19.366;2023-06-19T01:28:23;98887.38;;;14.36;83.50
80116;BME280;69423;47.608;19.366;2023-06-19T01:28:55;98889.84;;;14.37;82.74
80116;BME280;69423;47.608;19.366;2023-06-19T01:29:27;98890.66;;;14.38;83.35
80116;BME280;69423;47.608;19.366;2023-06-19T01:29:59;98889.63;;;14.39;82.74
80116;BME280;69423;47.608;19.366;2023-06-19T01:30:32;98882.41;;;14.40;83.29
80116;BME280;69423;47.608;19.366;2023-06-19T01:31:11;98882.41;;;14.40;83.40
80116;BME280;69423;47.608;19.366;2023-06-19T01:32:05;98883.03;;;14.42;83.08
80116;BME280;69423;47.608;19.366;2023-06-19T01:32:44;98896.22;;;14.43;82.43
80116;BME280;69423;47.608;19.366;2023-06-19T01:33:37;98891.69;;;14.44;83.42
80116;BME280;69423;47.608;19.366;2023-06-19T01:34:10;98889.81;;;14.44;82.77
80116;BME280;69423;47.608;19.366;2023-06-19T01:34:43;98892.28;;;14.46;82.33
80116;BME280;69423;47.608;19.366;2023-06-19T01:35:17;98892.91;;;14.41;83.33
80116;BME280;69423;47.608;19.366;2023-06-19T01:35:50;98893.75;;;14.42;83.14
80116;BME280;69423;47.608;19.366;2023-06-19T01:36:23;98888.16;;;14.43;83.30
80116;BME280;69423;47.608;19.366;2023-06-19T01:36:56;98893.31;;;14.45;83.49
80116;BME280;69423;47.608;19.366;2023-06-19T01:37:28;98894.97;;;14.46;83.95
80116;BME280;69423;47.608;19.366;2023-06-19T01:38:01;98896.44;;;14.48;83.43
80116;BME280;69423;47.608;19.366;2023-06-19T01:38:34;98890.22;;;14.48;82.70
80116;BME280;69423;47.608;19.366;2023-06-19T01:39:08;98893.13;;;14.46;83.18
80116;BME280;69423;47.608;19.366;2023-06-19T01:39:41;98892.28;;;14.46;82.89
80116;BME280;69423;47.608;19.366;2023-06-19T01:40:13;98886.34;;;14.44;83.60
80116;BME280;69423;47.608;19.366;2023-06-19T01:40:48;98887.16;;;14.44;83.53
80116;BME280;69423;47.608;19.366;2023-06-19T01:41:22;98894.97;;;14.46;83.48
80116;BME280;69423;47.608;19.366;2023-06-19T01:41:55;98894.97;;;14.46;83.59
80116;BME280;69423;47.608;19.366;2023-06-19T01:42:27;98889.41;;;14.47;83.24
80116;BME280;69423;47.608;19.366;2023-06-19T01:42:59;98899.31;;;14.47;83.13
80116;BME280;69423;47.608;19.366;2023-06-19T01:43:35;98891.25;;;14.47;83.64
80116;BME280;69423;47.608;19.366;2023-06-19T01:44:08;98891.25;;;14.47;83.31
80116;BME280;69423;47.608;19.366;2023-06-19T01:44:39;98891.25;;;14.47;83.15
80116;BME280;69423;47.608;19.366;2023-06-19T01:45:10;98890.22;;;14.48;83.79
80116;BME280;69423;47.608;19.366;2023-06-19T01:45:42;98893.31;;;14.45;83.47
80116;BME280;69423;47.608;19.366;2023-06-19T01:46:13;98884.47;;;14.44;83.84
80116;BME280;69423;47.608;19.366;2023-06-19T01:46:48;98889.00;;;14.44;83.49
80116;BME280;69423;47.608;19.366;2023-06-19T01:47:19;98889.00;;;14.44;83.82
80116;BME280;69423;47.608;19.366;2023-06-19T01:47:53;98889.81;;;14.44;83.13
80116;BME280;69423;47.608;19.366;2023-06-19T01:48:24;98882.81;;;14.43;83.41
80116;BME280;69423;47.608;19.366;2023-06-19T01:48:55;98881.97;;;14.43;83.11
80116;BME280;69423;47.608;19.366;2023-06-19T01:49:26;98890.66;;;14.45;83.66
80116;BME280;69423;47.608;19.366;2023-06-19T01:49:57;98880.97;;;14.44;83.32
80116;BME280;69423;47.608;19.366;2023-06-19T01:50:28;98882.81;;;14.43;83.06
80116;BME280;69423;47.608;19.366;2023-06-19T01:50:59;98878.69;;;14.41;83.96
80116;BME280;69423;47.608;19.366;2023-06-19T01:51:30;98877.66;;;14.42;83.29
80116;BME280;69423;47.608;19.366;2023-06-19T01:52:01;98881.97;;;14.43;83.60
80116;BME280;69423;47.608;19.366;2023-06-19T01:52:33;98884.22;;;14.46;83.70
80116;BME280;69423;47.608;19.366;2023-06-19T01:53:04;98879.09;;;14.44;83.45
80116;BME280;69423;47.608;19.366;2023-06-19T01:53:35;98879.91;;;14.45;83.29
80116;BME280;69423;47.608;19.366;2023-06-19T01:54:06;98883.66;;;14.44;83.21
80116;BME280;69423;47.608;19.366;2023-06-19T01:54:37;98885.47;;;14.43;82.80
80116;BME280;69423;47.608;19.366;2023-06-19T01:55:08;98888.16;;;14.43;82.38
80116;BME280;69423;47.608;19.366;2023-06-19T01:55:40;98888.59;;;14.40;82.56
80116;BME280;69423;47.608;19.366;2023-06-19T01:56:12;98881.38;;;14.41;83.31
80116;BME280;69423;47.608;19.366;2023-06-19T01:56:43;98884.88;;;14.41;84.16
80116;BME280;69423;47.608;19.366;2023-06-19T01:57:14;98883.44;;;14.38;83.88
80116;BME280;69423;47.608;19.366;2023-06-19T01:57:45;98881.56;;;14.39;84.23
80116;BME280;69423;47.608;19.366;2023-06-19T01:58:16;98891.28;;;14.40;84.27
80116;BME280;69423;47.608;19.366;2023-06-19T01:58:47;98884.47;;;14.37;83.93
80116;BME280;69423;47.608;19.366;2023-06-19T01:59:18;98886.94;;;14.39;83.67
80116;BME280;69423;47.608;19.366;2023-06-19T01:59:50;98891.47;;;14.38;84.19
80116;BME280;69423;47.608;19.366;2023-06-19T02:00:21;98889.63;;;14.32;83.96
80116;BME280;69423;47.608;19.366;2023-06-19T02:00:52;98890.25;;;14.34;84.30
80116;BME280;69423;47.608;19.366;2023-06-19T02:01:23;98891.06;;;14.35;84.11
80116;BME280;69423;47.608;19.366;2023-06-19T02:01:54;98886.53;;;14.29;83.42
80116;BME280;69423;47.608;19.366;2023-06-19T02:02:25;98886.53;;;14.29;83.46
80116;BME280;69423;47.608;19.366;2023-06-19T02:02:56;98893.34;;;14.25;83.47
80116;BME280;69423;47.608;19.366;2023-06-19T02:03:27;98890.47;;;14.26;83.99
80116;BME280;69423;47.608;19.366;2023-06-19T02:03:58;98891.50;;;14.25;84.13
80116;BME280;69423;47.608;19.366;2023-06-19T02:04:30;98889.44;;;14.27;83.63
80116;BME280;69423;47.608;19.366;2023-06-19T02:05:01;98895.44;;;14.29;83.91
80116;BME280;69423;47.608;19.366;2023-06-19T02:05:33;98890.44;;;14.33;83.68
80116;BME280;69423;47.608;19.366;2023-06-19T02:06:05;98890.25;;;14.34;83.47
80116;BME280;69423;47.608;19.366;2023-06-19T02:06:36;98899.34;;;14.33;82.89
80116;BME280;69423;47.608;19.366;2023-06-19T02:07:07;98899.34;;;14.33;82.64
80116;BME280;69423;47.608;19.366;2023-06-19T02:07:38;98891.91;;;14.35;83.22
80116;BME280;69423;47.608;19.366;2023-06-19T02:08:09;98895.22;;;14.37;83.62
80116;BME280;69423;47.608;19.366;2023-06-19T02:08:40;98893.97;;;14.40;83.54
80116;BME280;69423;47.608;19.366;2023-06-19T02:09:11;98900.56;;;14.44;83.08
80116;BME280;69423;47.608;19.366;2023-06-19T02:09:42;98904.06;;;14.45;83.54
80116;BME280;69423;47.608;19.366;2023-06-19T02:10:13;98902.63;;;14.42;84.33
80116;BME280;69423;47.608;19.366;2023-06-19T02:10:44;98898.06;;;14.43;83.55
80116;BME280;69423;47.608;19.366;2023-06-19T02:11:15;98899.13;;;14.42;83.69
80116;BME280;69423;47.608;19.366;2023-06-19T02:11:46;98903.25;;;14.37;83.55
80116;BME280;69423;47.608;19.366;2023-06-19T02:12:17;98895.41;;;14.43;84.00
80116;BME280;69423;47.608;19.366;2023-06-19T02:12:48;98905.94;;;14.44;84.04
80116;BME280;69423;47.608;19.366;2023-06-19T02:13:19;98906.75;;;14.45;83.43
80116;BME280;69423;47.608;19.366;2023-06-19T02:13:50;98898.28;;;14.41;83.36
80116;BME280;69423;47.608;19.366;2023-06-19T02:14:21;98896.44;;;14.42;83.18
80116;BME280;69423;47.608;19.366;2023-06-19T02:14:52;98903.44;;;14.43;83.14
80116;BME280;69423;47.608;19.366;2023-06-19T02:15:23;98897.47;;;14.41;83.96
80116;BME280;69423;47.608;19.366;2023-06-19T02:15:54;98899.53;;;14.38;83.08
80116;BME280;69423;47.608;19.366;2023-06-19T02:16:26;98900.56;;;14.37;83.67
80116;BME280;69423;47.608;19.366;2023-06-19T02:16:57;98898.31;;;14.34;82.59
80116;BME280;69423;47.608;19.366;2023-06-19T02:17:28;98904.09;;;14.31;83.15
80116;BME280;69423;47.608;19.366;2023-06-19T02:17:59;98897.47;;;14.34;82.73
80116;BME280;69423;47.608;19.366;2023-06-19T02:18:30;98902.84;;;14.27;82.38
80116;BME280;69423;47.608;19.366;2023-06-19T02:19:01;98903.47;;;14.29;82.49
80116;BME280;69423;47.608;19.366;2023-06-19T02:19:33;98900.56;;;14.31;82.34
80116;BME280;69423;47.608;19.366;2023-06-19T02:20:04;98907.78;;;14.30;82.53
80116;BME280;69423;47.608;19.366;2023-06-19T02:20:39;98900.19;;;14.27;82.77
80116;BME280;69423;47.608;19.366;2023-06-19T02:21:11;98905.94;;;14.24;82.12
80116;BME280;69423;47.608;19.366;2023-06-19T02:21:42;98902.84;;;14.27;82.95
80116;BME280;69423;47.608;19.366;2023-06-19T02:22:13;98905.31;;;14.29;82.19
80116;BME280;69423;47.608;19.366;2023-06-19T02:22:44;98902.63;;;14.29;81.92
80116;BME280;69423;47.608;19.366;2023-06-19T02:23:15;98907.19;;;14.28;82.11
80116;BME280;69423;47.608;19.366;2023-06-19T02:23:46;98903.25;;;14.24;82.19
80116;BME280;69423;47.608;19.366;2023-06-19T02:24:17;98910.28;;;14.25;82.03
80116;BME280;69423;47.608;19.366;2023-06-19T02:24:48;98906.75;;;14.25;82.82
80116;BME280;69423;47.608;19.366;2023-06-19T02:25:19;98907.19;;;14.28;82.49
80116;BME280;69423;47.608;19.366;2023-06-19T02:25:50;98900.56;;;14.24;82.70
80116;BME280;69423;47.608;19.366;2023-06-19T02:26:21;98898.31;;;14.21;82.69
80116;BME280;69423;47.608;19.366;2023-06-19T02:26:52;98905.94;;;14.24;82.35
80116;BME280;69423;47.608;19.366;2023-06-19T02:27:23;98907.38;;;14.27;82.67
80116;BME280;69423;47.608;19.366;2023-06-19T02:27:55;98895.63;;;14.28;82.61
80116;BME280;69423;47.608;19.366;2023-06-19T02:28:26;98906.34;;;14.28;82.94
80116;BME280;69423;47.608;19.366;2023-06-19T02:28:57;98904.50;;;14.28;82.21
80116;BME280;69423;47.608;19.366;2023-06-19T02:29:28;98895.63;;;14.28;82.34
80116;BME280;69423;47.608;19.366;2023-06-19T02:30:00;98904.28;;;14.30;81.69
80116;BME280;69423;47.608;19.366;2023-06-19T02:30:31;98907.41;;;14.33;81.68
80116;BME280;69423;47.608;19.366;2023-06-19T02:31:02;98906.78;;;14.31;82.95
80116;BME280;69423;47.608;19.366;2023-06-19T02:31:33;98901.41;;;14.31;82.41
80116;BME280;69423;47.608;19.366;2023-06-19T02:32:05;98905.72;;;14.32;83.30
80116;BME280;69423;47.608;19.366;2023-06-19T02:32:36;98911.09;;;14.32;82.91
80116;BME280;69423;47.608;19.366;2023-06-19T02:33:07;98904.50;;;14.28;83.60
80116;BME280;69423;47.608;19.366;2023-06-19T02:33:38;98912.13;;;14.31;83.33
80116;BME280;69423;47.608;19.366;2023-06-19T02:34:09;98904.91;;;14.32;83.82
80116;BME280;69423;47.608;19.366;2023-06-19T02:34:40;98909.22;;;14.33;83.01
80116;BME280;69423;47.608;19.366;2023-06-19T02:35:11;98916.25;;;14.34;83.95
80116;BME280;69423;47.608;19.366;2023-06-19T02:35:42;98914.59;;;14.33;83.07
80116;BME280;69423;47.608;19.366;2023-06-19T02:36:15;98914.59;;;14.33;82.88
80116;BME280;69423;47.608;19.366;2023-06-19T02:36:50;98915.00;;;14.36;82.67
80116;BME280;69423;47.608;19.366;2023-06-19T02:37:21;98916.25;;;14.41;82.29
80116;BME280;69423;47.608;19.366;2023-06-19T02:37:52;98912.31;;;14.36;83.47
80116;BME280;69423;47.608;19.366;2023-06-19T02:38:23;98916.47;;;14.32;82.40
80116;BME280;69423;47.608;19.366;2023-06-19T02:38:54;98914.00;;;14.37;82.20
80116;BME280;69423;47.608;19.366;2023-06-19T02:39:26;98907.19;;;14.42;83.15
80116;BME280;69423;47.608;19.366;2023-06-19T02:39:57;98910.88;;;14.41;82.69
80116;BME280;69423;47.608;19.366;2023-06-19T02:40:29;98906.94;;;14.43;83.17
80116;BME280;69423;47.608;19.366;2023-06-19T02:41:00;98913.16;;;14.44;83.36
80116;BME280;69423;47.608;19.366;2023-06-19T02:41:32;98908.41;;;14.39;82.86
80116;BME280;69423;47.608;19.366;2023-06-19T02:42:03;98910.88;;;14.41;83.03
80116;BME280;69423;47.608;19.366;2023-06-19T02:42:35;98908.63;;;14.37;83.29
80116;BME280;69423;47.608;19.366;2023-06-19T02:43:06;98909.25;;;14.40;82.42
80116;BME280;69423;47.608;19.366;2023-06-19T02:43:37;98911.94;;;14.40;82.13
80116;BME280;69423;47.608;19.366;2023-06-19T02:44:08;98911.06;;;14.39;82.39
80116;BME280;69423;47.608;19.366;2023-06-19T02:44:39;98910.88;;;14.41;82.27
80116;BME280;69423;47.608;19.366;2023-06-19T02:45:11;98919.97;;;14.40;81.97
80116;BME280;69423;47.608;19.366;2023-06-19T02:45:42;98911.69;;;14.41;82.00
80116;BME280;69423;47.608;19.366;2023-06-19T02:46:13;98910.47;;;14.37;82.02
80116;BME280;69423;47.608;19.366;2023-06-19T02:46:44;98915.81;;;14.37;82.20
80116;BME280;69423;47.608;19.366;2023-06-19T02:47:15;98911.31;;;14.37;82.00
80116;BME280;69423;47.608;19.366;2023-06-19T02:47:46;98914.19;;;14.36;81.70
80116;BME280;69423;47.608;19.366;2023-06-19T02:48:17;98911.31;;;14.37;82.40
80116;BME280;69423;47.608;19.366;2023-06-19T02:48:48;98910.47;;;14.37;82.03
80116;BME280;69423;47.608;19.366;2023-06-19T02:49:19;98912.94;;;14.38;82.06
80116;BME280;69423;47.608;19.366;2023-06-19T02:49:50;98910.69;;;14.35;82.42
80116;BME280;69423;47.608;19.366;2023-06-19T02:50:21;98917.88;;;14.35;82.34